sensor_id;sensor_type;location;lat;lon;timestamp;temperature;humidity
37310;DHT22;23195;47.744;7.358;2023-06-04T00:01:35;18.80;89.60
37310;DHT22;23195;47.744;7.358;2023-06-04T00:04:00;18.80;89.70
37310;DHT22;23195;47.744;7.358;2023-06-04T00:06:26;18.70;90.00
37310;DHT22;23195;47.744;7.358;2023-06-04T00:08:52;18.70;90.00
37310;DHT22;23195;47.744;7.358;2023-06-04T00:11:18;18.60;90.10
37310;DHT22;23195;47.744;7.358;2023-06-04T00:13:43;18.60;90.00
37310;DHT22;23195;47.744;7.358;2023-06-04T00:16:09;18.60;90.00
37310;DHT22;23195;47.744;7.358;2023-06-04T00:18:35;18.60;90.10
37310;DHT22;23195;47.744;7.358;2023-06-04T00:21:01;18.70;90.10
37310;DHT22;23195;47.744;7.358;2023-06-04T00:23:26;18.60;90.20
37310;DHT22;23195;47.744;7.358;2023-06-04T00:25:52;18.50;90.50
37310;DHT22;23195;47.744;7.358;2023-06-04T00:28:18;18.40;90.20
37310;DHT22;23195;47.744;7.358;2023-06-04T00:30:43;18.40;90.30
37310;DHT22;23195;47.744;7.358;2023-06-04T00:33:09;18.30;90.40
37310;DHT22;23195;47.744;7.358;2023-06-04T00:35:35;18.30;90.50
37310;DHT22;23195;47.744;7.358;2023-06-04T00:38:01;18.30;90.60
37310;DHT22;23195;47.744;7.358;2023-06-04T00:40:26;18.20;90.70
37310;DHT22;23195;47.744;7.358;2023-06-04T00:42:52;18.10;90.60
37310;DHT22;23195;47.744;7.358;2023-06-04T00:45:18;18.20;90.50
37310;DHT22;23195;47.744;7.358;2023-06-04T00:47:49;18.20;90.50
37310;DHT22;23195;47.744;7.358;2023-06-04T00:50:15;18.10;90.50
37310;DHT22;23195;47.744;7.358;2023-06-04T00:52:41;18.20;90.40
37310;DHT22;23195;47.744;7.358;2023-06-04T00:55:07;18.10;90.40
37310;DHT22;23195;47.744;7.358;2023-06-04T00:57:33;18.10;90.40
37310;DHT22;23195;47.744;7.358;2023-06-04T00:59:59;18.10;90.40
37310;DHT22;23195;47.744;7.358;2023-06-04T01:02:26;18.00;90.60
37310;DHT22;23195;47.744;7.358;2023-06-04T01:07:27;17.80;90.80
37310;DHT22;23195;47.744;7.358;2023-06-04T01:09:54;17.80;90.80
37310;DHT22;23195;47.744;7.358;2023-06-04T01:12:20;17.80;90.90
37310;DHT22;23195;47.744;7.358;2023-06-04T01:14:46;17.70;91.00
37310;DHT22;23195;47.744;7.358;2023-06-04T01:20:26;17.60;91.40
37310;DHT22;23195;47.744;7.358;2023-06-04T01:25:27;17.50;91.20
37310;DHT22;23195;47.744;7.358;2023-06-04T01:27:56;17.50;91.40
37310;DHT22;23195;47.744;7.358;2023-06-04T01:30:25;17.50;91.20
37310;DHT22;23195;47.744;7.358;2023-06-04T01:32:52;17.40;91.20
37310;DHT22;23195;47.744;7.358;2023-06-04T01:35:18;17.40;91.30
37310;DHT22;23195;47.744;7.358;2023-06-04T01:37:43;17.30;91.40
37310;DHT22;23195;47.744;7.358;2023-06-04T01:40:09;17.30;91.50
37310;DHT22;23195;47.744;7.358;2023-06-04T01:42:36;17.20;91.50
37310;DHT22;23195;47.744;7.358;2023-06-04T01:45:02;17.20;91.40
37310;DHT22;23195;47.744;7.358;2023-06-04T01:47:28;17.30;91.50
37310;DHT22;23195;47.744;7.358;2023-06-04T01:49:53;17.10;91.50
37310;DHT22;23195;47.744;7.358;2023-06-04T01:52:19;17.20;91.40
37310;DHT22;23195;47.744;7.358;2023-06-04T01:54:46;17.10;91.40
37310;DHT22;23195;47.744;7.358;2023-06-04T01:57:15;17.10;91.40
37310;DHT22;23195;47.744;7.358;2023-06-04T01:59:41;17.10;91.40
37310;DHT22;23195;47.744;7.358;2023-06-04T02:02:07;17.10;91.40
37310;DHT22;23195;47.744;7.358;2023-06-04T02:04:33;15.90;91.20
37310;DHT22;23195;47.744;7.358;2023-06-04T02:07:02;17.00;91.40
37310;DHT22;23195;47.744;7.358;2023-06-04T02:09:28;16.90;91.40
37310;DHT22;23195;47.744;7.358;2023-06-04T02:11:54;16.90;91.40
37310;DHT22;23195;47.744;7.358;2023-06-04T02:14:19;16.90;91.30
37310;DHT22;23195;47.744;7.358;2023-06-04T02:16:45;16.90;91.30
37310;DHT22;23195;47.744;7.358;2023-06-04T02:19:15;16.90;91.50
37310;DHT22;23195;47.744;7.358;2023-06-04T02:21:41;16.80;91.20
37310;DHT22;23195;47.744;7.358;2023-06-04T02:24:06;16.80;91.30
37310;DHT22;23195;47.744;7.358;2023-06-04T02:26:32;16.80;91.20
37310;DHT22;23195;47.744;7.358;2023-06-04T02:28:58;16.80;91.20
37310;DHT22;23195;47.744;7.358;2023-06-04T02:31:23;16.80;91.10
37310;DHT22;23195;47.744;7.358;2023-06-04T02:33:49;16.70;91.10
37310;DHT22;23195;47.744;7.358;2023-06-04T02:36:15;16.70;91.20
37310;DHT22;23195;47.744;7.358;2023-06-04T02:38:43;16.70;91.10
37310;DHT22;23195;47.744;7.358;2023-06-04T02:41:08;16.70;91.20
37310;DHT22;23195;47.744;7.358;2023-06-04T02:43:34;16.70;91.10
37310;DHT22;23195;47.744;7.358;2023-06-04T02:46:00;16.60;91.00
37310;DHT22;23195;47.744;7.358;2023-06-04T02:48:26;16.60;90.90
37310;DHT22;23195;47.744;7.358;2023-06-04T02:50:51;16.70;91.00
37310;DHT22;23195;47.744;7.358;2023-06-04T02:53:17;16.60;91.10
37310;DHT22;23195;47.744;7.358;2023-06-04T02:55:43;16.60;91.00
37310;DHT22;23195;47.744;7.358;2023-06-04T02:58:08;16.60;91.00
37310;DHT22;23195;47.744;7.358;2023-06-04T03:00:34;16.60;91.00
37310;DHT22;23195;47.744;7.358;2023-06-04T03:03:00;16.50;91.00
37310;DHT22;23195;47.744;7.358;2023-06-04T03:05:29;16.50;91.10
37310;DHT22;23195;47.744;7.358;2023-06-04T03:08:00;16.40;91.20
37310;DHT22;23195;47.744;7.358;2023-06-04T03:10:26;16.30;91.40
37310;DHT22;23195;47.744;7.358;2023-06-04T03:12:52;16.30;91.20
37310;DHT22;23195;47.744;7.358;2023-06-04T03:15:18;16.30;91.20
37310;DHT22;23195;47.744;7.358;2023-06-04T03:17:43;16.20;91.20
37310;DHT22;23195;47.744;7.358;2023-06-04T03:20:10;16.30;91.20
37310;DHT22;23195;47.744;7.358;2023-06-04T03:22:36;16.20;91.00
37310;DHT22;23195;47.744;7.358;2023-06-04T03:25:02;16.20;91.00
37310;DHT22;23195;47.744;7.358;2023-06-04T03:27:29;16.20;91.00
37310;DHT22;23195;47.744;7.358;2023-06-04T03:29:55;16.20;91.00
37310;DHT22;23195;47.744;7.358;2023-06-04T03:32:21;16.20;91.00
37310;DHT22;23195;47.744;7.358;2023-06-04T03:34:47;16.10;91.00
37310;DHT22;23195;47.744;7.358;2023-06-04T03:37:12;16.10;91.20
37310;DHT22;23195;47.744;7.358;2023-06-04T03:39:38;16.10;91.20
37310;DHT22;23195;47.744;7.358;2023-06-04T03:42:04;16.10;91.20
37310;DHT22;23195;47.744;7.358;2023-06-04T03:44:30;16.10;91.40
37310;DHT22;23195;47.744;7.358;2023-06-04T03:46:56;16.00;91.40
37310;DHT22;23195;47.744;7.358;2023-06-04T03:49:22;16.10;91.30
37310;DHT22;23195;47.744;7.358;2023-06-04T03:51:48;16.00;91.40
37310;DHT22;23195;47.744;7.358;2023-06-04T03:54:14;16.00;91.30
37310;DHT22;23195;47.744;7.358;2023-06-04T03:56:46;16.00;91.30
37310;DHT22;23195;47.744;7.358;2023-06-04T03:59:12;15.90;91.30
37310;DHT22;23195;47.744;7.358;2023-06-04T04:01:38;16.00;91.30
37310;DHT22;23195;47.744;7.358;2023-06-04T04:04:04;16.00;91.30
37310;DHT22;23195;47.744;7.358;2023-06-04T04:06:30;16.10;91.30
37310;DHT22;23195;47.744;7.358;2023-06-04T04:08:56;16.00;91.30
37310;DHT22;23195;47.744;7.358;2023-06-04T04:11:23;16.00;91.30
37310;DHT22;23195;47.744;7.358;2023-06-04T04:13:49;16.00;91.10
37310;DHT22;23195;47.744;7.358;2023-06-04T04:16:15;16.10;91.20
37310;DHT22;23195;47.744;7.358;2023-06-04T04:18:44;16.10;91.10
37310;DHT22;23195;47.744;7.358;2023-06-04T04:21:10;16.10;91.00
37310;DHT22;23195;47.744;7.358;2023-06-04T04:23:38;16.20;91.00
37310;DHT22;23195;47.744;7.358;2023-06-04T04:26:05;16.30;90.90
37310;DHT22;23195;47.744;7.358;2023-06-04T04:28:32;16.40;90.80
37310;DHT22;23195;47.744;7.358;2023-06-04T04:30:59;16.50;90.60
37310;DHT22;23195;47.744;7.358;2023-06-04T04:33:28;16.60;90.30
37310;DHT22;23195;47.744;7.358;2023-06-04T04:35:58;17.00;90.10
37310;DHT22;23195;47.744;7.358;2023-06-04T04:38:27;17.30;88.80
37310;DHT22;23195;47.744;7.358;2023-06-04T04:40:54;17.80;87.20
37310;DHT22;23195;47.744;7.358;2023-06-04T04:43:38;18.30;85.70
37310;DHT22;23195;47.744;7.358;2023-06-04T04:46:08;18.70;84.00
37310;DHT22;23195;47.744;7.358;2023-06-04T04:48:35;19.20;83.10
37310;DHT22;23195;47.744;7.358;2023-06-04T04:51:01;19.60;81.60
37310;DHT22;23195;47.744;7.358;2023-06-04T04:53:27;19.80;81.00
37310;DHT22;23195;47.744;7.358;2023-06-04T04:55:53;20.10;79.60
37310;DHT22;23195;47.744;7.358;2023-06-04T04:58:19;20.60;78.60
37310;DHT22;23195;47.744;7.358;2023-06-04T05:00:44;20.60;78.20
37310;DHT22;23195;47.744;7.358;2023-06-04T05:03:15;20.70;77.70
37310;DHT22;23195;47.744;7.358;2023-06-04T05:05:44;20.90;77.20
37310;DHT22;23195;47.744;7.358;2023-06-04T05:08:09;21.10;77.10
37310;DHT22;23195;47.744;7.358;2023-06-04T05:10:35;21.10;76.80
37310;DHT22;23195;47.744;7.358;2023-06-04T05:13:01;21.50;75.40
37310;DHT22;23195;47.744;7.358;2023-06-04T05:15:27;21.60;75.40
37310;DHT22;23195;47.744;7.358;2023-06-04T05:17:53;22.00;74.50
37310;DHT22;23195;47.744;7.358;2023-06-04T05:20:21;21.90;74.00
37310;DHT22;23195;47.744;7.358;2023-06-04T05:22:51;22.00;73.50
37310;DHT22;23195;47.744;7.358;2023-06-04T05:25:17;22.10;73.60
37310;DHT22;23195;47.744;7.358;2023-06-04T05:27:43;22.00;73.30
37310;DHT22;23195;47.744;7.358;2023-06-04T05:30:10;21.60;74.70
37310;DHT22;23195;47.744;7.358;2023-06-04T05:32:36;21.00;76.00
37310;DHT22;23195;47.744;7.358;2023-06-04T05:35:06;20.50;77.20
37310;DHT22;23195;47.744;7.358;2023-06-04T05:37:33;20.30;78.20
37310;DHT22;23195;47.744;7.358;2023-06-04T05:40:03;20.10;79.00
37310;DHT22;23195;47.744;7.358;2023-06-04T05:42:31;19.60;79.80
37310;DHT22;23195;47.744;7.358;2023-06-04T05:44:56;19.20;81.40
37310;DHT22;23195;47.744;7.358;2023-06-04T05:47:22;19.10;81.80
37310;DHT22;23195;47.744;7.358;2023-06-04T05:49:48;18.90;82.50
37310;DHT22;23195;47.744;7.358;2023-06-04T05:52:14;18.90;82.70
37310;DHT22;23195;47.744;7.358;2023-06-04T05:54:39;19.10;82.50
37310;DHT22;23195;47.744;7.358;2023-06-04T05:57:05;19.10;82.40
37310;DHT22;23195;47.744;7.358;2023-06-04T05:59:31;18.90;82.60
37310;DHT22;23195;47.744;7.358;2023-06-04T06:01:57;18.80;83.00
37310;DHT22;23195;47.744;7.358;2023-06-04T06:04:23;18.80;83.00
37310;DHT22;23195;47.744;7.358;2023-06-04T06:06:49;18.60;83.50
37310;DHT22;23195;47.744;7.358;2023-06-04T06:09:15;18.40;84.80
37310;DHT22;23195;47.744;7.358;2023-06-04T06:11:44;18.40;84.80
37310;DHT22;23195;47.744;7.358;2023-06-04T06:14:10;18.40;85.10
37310;DHT22;23195;47.744;7.358;2023-06-04T06:16:36;18.40;85.20
37310;DHT22;23195;47.744;7.358;2023-06-04T06:19:02;18.50;85.10
37310;DHT22;23195;47.744;7.358;2023-06-04T06:21:28;18.30;85.60
37310;DHT22;23195;47.744;7.358;2023-06-04T06:23:54;18.50;85.50
37310;DHT22;23195;47.744;7.358;2023-06-04T06:26:20;18.90;85.00
37310;DHT22;23195;47.744;7.358;2023-06-04T06:28:47;20.20;81.30
37310;DHT22;23195;47.744;7.358;2023-06-04T06:31:13;21.50;78.10
37310;DHT22;23195;47.744;7.358;2023-06-04T06:33:39;22.70;74.60
37310;DHT22;23195;47.744;7.358;2023-06-04T06:36:15;23.50;73.20
37310;DHT22;23195;47.744;7.358;2023-06-04T06:38:42;24.20;70.30
37310;DHT22;23195;47.744;7.358;2023-06-04T06:41:07;24.00;71.50
37310;DHT22;23195;47.744;7.358;2023-06-04T06:43:33;24.60;69.70
37310;DHT22;23195;47.744;7.358;2023-06-04T06:45:59;24.90;68.80
37310;DHT22;23195;47.744;7.358;2023-06-04T06:48:25;25.40;68.10
37310;DHT22;23195;47.744;7.358;2023-06-04T06:50:50;25.80;67.60
37310;DHT22;23195;47.744;7.358;2023-06-04T06:53:16;26.30;65.50
37310;DHT22;23195;47.744;7.358;2023-06-04T06:55:42;25.90;66.30
37310;DHT22;23195;47.744;7.358;2023-06-04T06:58:12;26.90;64.50
37310;DHT22;23195;47.744;7.358;2023-06-04T07:00:41;27.50;63.20
37310;DHT22;23195;47.744;7.358;2023-06-04T07:03:13;27.50;62.60
37310;DHT22;23195;47.744;7.358;2023-06-04T07:05:47;27.70;61.70
37310;DHT22;23195;47.744;7.358;2023-06-04T07:08:16;27.50;62.10
37310;DHT22;23195;47.744;7.358;2023-06-04T07:10:57;27.10;63.00
37310;DHT22;23195;47.744;7.358;2023-06-04T07:13:28;27.70;62.20
37310;DHT22;23195;47.744;7.358;2023-06-04T07:16:07;28.10;60.70
37310;DHT22;23195;47.744;7.358;2023-06-04T07:18:47;29.10;59.30
37310;DHT22;23195;47.744;7.358;2023-06-04T07:21:28;29.80;57.60
37310;DHT22;23195;47.744;7.358;2023-06-04T07:27:15;28.70;58.50
37310;DHT22;23195;47.744;7.358;2023-06-04T07:29:50;28.50;59.20
37310;DHT22;23195;47.744;7.358;2023-06-04T07:32:53;28.40;59.50
37310;DHT22;23195;47.744;7.358;2023-06-04T07:35:24;28.80;59.00
37310;DHT22;23195;47.744;7.358;2023-06-04T07:38:13;29.00;58.90
37310;DHT22;23195;47.744;7.358;2023-06-04T07:40:47;29.40;58.10
37310;DHT22;23195;47.744;7.358;2023-06-04T07:43:21;29.40;58.00
37310;DHT22;23195;47.744;7.358;2023-06-04T07:46:24;28.60;58.80
37310;DHT22;23195;47.744;7.358;2023-06-04T07:48:54;27.40;60.60
37310;DHT22;23195;47.744;7.358;2023-06-04T07:51:28;27.20;61.80
37310;DHT22;23195;47.744;7.358;2023-06-04T07:53:59;26.40;62.90
37310;DHT22;23195;47.744;7.358;2023-06-04T07:56:30;25.30;64.80
37310;DHT22;23195;47.744;7.358;2023-06-04T07:59:00;24.60;66.70
37310;DHT22;23195;47.744;7.358;2023-06-04T08:01:29;24.70;67.10
37310;DHT22;23195;47.744;7.358;2023-06-04T08:06:54;23.80;68.10
37310;DHT22;23195;47.744;7.358;2023-06-04T08:09:33;24.10;67.50
37310;DHT22;23195;47.744;7.358;2023-06-04T08:12:08;24.00;68.10
37310;DHT22;23195;47.744;7.358;2023-06-04T08:18:09;24.70;66.00
37310;DHT22;23195;47.744;7.358;2023-06-04T08:21:11;26.20;64.10
37310;DHT22;23195;47.744;7.358;2023-06-04T08:24:24;26.00;63.90
37310;DHT22;23195;47.744;7.358;2023-06-04T08:27:11;24.90;64.80
37310;DHT22;23195;47.744;7.358;2023-06-04T08:29:44;25.00;67.10
37310;DHT22;23195;47.744;7.358;2023-06-04T08:32:44;25.00;66.70
37310;DHT22;23195;47.744;7.358;2023-06-04T08:35:20;24.60;67.40
37310;DHT22;23195;47.744;7.358;2023-06-04T08:37:51;24.20;68.70
37310;DHT22;23195;47.744;7.358;2023-06-04T08:40:28;24.90;67.50
37310;DHT22;23195;47.744;7.358;2023-06-04T08:43:08;25.90;65.70
37310;DHT22;23195;47.744;7.358;2023-06-04T08:45:41;26.60;64.40
37310;DHT22;23195;47.744;7.358;2023-06-04T08:48:12;27.10;63.50
37310;DHT22;23195;47.744;7.358;2023-06-04T08:50:45;27.50;62.80
37310;DHT22;23195;47.744;7.358;2023-06-04T08:53:15;27.90;62.50
37310;DHT22;23195;47.744;7.358;2023-06-04T08:55:41;27.90;62.90
37310;DHT22;23195;47.744;7.358;2023-06-04T08:58:13;27.90;62.30
37310;DHT22;23195;47.744;7.358;2023-06-04T09:00:43;27.50;62.50
37310;DHT22;23195;47.744;7.358;2023-06-04T09:03:09;27.40;63.80
37310;DHT22;23195;47.744;7.358;2023-06-04T09:05:36;27.30;63.20
37310;DHT22;23195;47.744;7.358;2023-06-04T09:08:08;27.70;63.00
37310;DHT22;23195;47.744;7.358;2023-06-04T09:10:38;27.70;63.00
37310;DHT22;23195;47.744;7.358;2023-06-04T09:13:13;27.50;62.90
37310;DHT22;23195;47.744;7.358;2023-06-04T09:15:43;27.30;63.80
37310;DHT22;23195;47.744;7.358;2023-06-04T09:18:09;27.00;64.20
37310;DHT22;23195;47.744;7.358;2023-06-04T09:20:37;26.80;65.10
37310;DHT22;23195;47.744;7.358;2023-06-04T09:23:50;26.70;65.50
37310;DHT22;23195;47.744;7.358;2023-06-04T09:26:35;26.60;65.80
37310;DHT22;23195;47.744;7.358;2023-06-04T09:35:33;26.40;66.30
37310;DHT22;23195;47.744;7.358;2023-06-04T09:38:07;26.10;66.90
37310;DHT22;23195;47.744;7.358;2023-06-04T09:40:37;26.00;67.60
37310;DHT22;23195;47.744;7.358;2023-06-04T09:43:06;25.90;68.10
37310;DHT22;23195;47.744;7.358;2023-06-04T09:48:39;25.60;69.10
37310;DHT22;23195;47.744;7.358;2023-06-04T09:51:12;24.90;71.10
37310;DHT22;23195;47.744;7.358;2023-06-04T09:53:53;24.20;73.60
37310;DHT22;23195;47.744;7.358;2023-06-04T09:56:48;23.80;74.60
37310;DHT22;23195;47.744;7.358;2023-06-04T09:59:25;23.80;76.30
37310;DHT22;23195;47.744;7.358;2023-06-04T10:02:04;24.00;75.30
37310;DHT22;23195;47.744;7.358;2023-06-04T10:04:34;23.20;76.30
37310;DHT22;23195;47.744;7.358;2023-06-04T10:07:04;23.00;77.10
37310;DHT22;23195;47.744;7.358;2023-06-04T10:09:39;23.00;78.00
37310;DHT22;23195;47.744;7.358;2023-06-04T10:12:22;22.90;78.10
37310;DHT22;23195;47.744;7.358;2023-06-04T10:14:59;22.90;78.50
37310;DHT22;23195;47.744;7.358;2023-06-04T10:24:09;22.90;79.20
37310;DHT22;23195;47.744;7.358;2023-06-04T10:26:43;22.90;79.30
37310;DHT22;23195;47.744;7.358;2023-06-04T10:29:12;22.70;79.50
37310;DHT22;23195;47.744;7.358;2023-06-04T10:31:42;22.40;80.60
37310;DHT22;23195;47.744;7.358;2023-06-04T10:34:20;22.50;81.20
37310;DHT22;23195;47.744;7.358;2023-06-04T10:36:46;22.60;81.00
37310;DHT22;23195;47.744;7.358;2023-06-04T10:39:32;22.60;81.00
37310;DHT22;23195;47.744;7.358;2023-06-04T10:41:59;22.70;82.00
37310;DHT22;23195;47.744;7.358;2023-06-04T10:44:25;22.60;81.90
37310;DHT22;23195;47.744;7.358;2023-06-04T10:46:51;22.70;83.30
37310;DHT22;23195;47.744;7.358;2023-06-04T10:49:29;22.50;82.90
37310;DHT22;23195;47.744;7.358;2023-06-04T10:51:56;22.40;83.60
37310;DHT22;23195;47.744;7.358;2023-06-04T10:54:35;22.60;84.10
37310;DHT22;23195;47.744;7.358;2023-06-04T10:57:18;22.70;82.60
37310;DHT22;23195;47.744;7.358;2023-06-04T11:00:00;22.60;83.60
37310;DHT22;23195;47.744;7.358;2023-06-04T11:02:26;22.80;83.90
37310;DHT22;23195;47.744;7.358;2023-06-04T11:05:05;23.00;83.00
37310;DHT22;23195;47.744;7.358;2023-06-04T11:08:07;22.80;83.90
37310;DHT22;23195;47.744;7.358;2023-06-04T11:10:40;22.90;83.70
37310;DHT22;23195;47.744;7.358;2023-06-04T11:13:06;22.90;82.70
37310;DHT22;23195;47.744;7.358;2023-06-04T11:15:45;23.00;83.50
37310;DHT22;23195;47.744;7.358;2023-06-04T11:18:25;23.10;84.40
37310;DHT22;23195;47.744;7.358;2023-06-04T11:24:03;23.30;83.70
37310;DHT22;23195;47.744;7.358;2023-06-04T11:26:31;23.30;83.60
37310;DHT22;23195;47.744;7.358;2023-06-04T11:28:57;23.50;82.20
37310;DHT22;23195;47.744;7.358;2023-06-04T11:31:43;23.70;83.20
37310;DHT22;23195;47.744;7.358;2023-06-04T11:34:10;23.50;83.50
37310;DHT22;23195;47.744;7.358;2023-06-04T11:36:39;23.60;82.10
37310;DHT22;23195;47.744;7.358;2023-06-04T11:39:21;23.80;81.30
37310;DHT22;23195;47.744;7.358;2023-06-04T11:42:03;23.90;81.30
37310;DHT22;23195;47.744;7.358;2023-06-04T11:44:36;23.70;82.00
37310;DHT22;23195;47.744;7.358;2023-06-04T11:47:06;22.70;82.10
37310;DHT22;23195;47.744;7.358;2023-06-04T11:49:41;23.80;82.60
37310;DHT22;23195;47.744;7.358;2023-06-04T11:52:08;23.70;83.50
37310;DHT22;23195;47.744;7.358;2023-06-04T11:54:37;23.60;83.70
37310;DHT22;23195;47.744;7.358;2023-06-04T11:57:04;23.70;82.50
37310;DHT22;23195;47.744;7.358;2023-06-04T11:59:32;23.90;82.80
37310;DHT22;23195;47.744;7.358;2023-06-04T12:01:58;23.70;83.20
37310;DHT22;23195;47.744;7.358;2023-06-04T12:04:23;23.60;83.00
37310;DHT22;23195;47.744;7.358;2023-06-04T12:06:59;23.60;82.80
37310;DHT22;23195;47.744;7.358;2023-06-04T12:09:31;23.70;83.20
37310;DHT22;23195;47.744;7.358;2023-06-04T12:12:22;23.80;82.00
37310;DHT22;23195;47.744;7.358;2023-06-04T12:14:59;23.70;82.40
37310;DHT22;23195;47.744;7.358;2023-06-04T12:17:25;23.80;80.50
37310;DHT22;23195;47.744;7.358;2023-06-04T12:19:51;23.90;81.20
37310;DHT22;23195;47.744;7.358;2023-06-04T12:22:17;23.80;80.70
37310;DHT22;23195;47.744;7.358;2023-06-04T12:24:51;23.90;80.70
37310;DHT22;23195;47.744;7.358;2023-06-04T12:27:25;23.80;80.30
37310;DHT22;23195;47.744;7.358;2023-06-04T12:30:00;23.80;81.10
37310;DHT22;23195;47.744;7.358;2023-06-04T12:32:26;23.80;81.40
37310;DHT22;23195;47.744;7.358;2023-06-04T12:34:53;23.80;81.00
37310;DHT22;23195;47.744;7.358;2023-06-04T12:37:19;24.00;81.30
37310;DHT22;23195;47.744;7.358;2023-06-04T12:39:45;24.20;81.10
37310;DHT22;23195;47.744;7.358;2023-06-04T12:42:11;24.40;81.00
37310;DHT22;23195;47.744;7.358;2023-06-04T12:44:40;24.20;81.00
37310;DHT22;23195;47.744;7.358;2023-06-04T12:47:09;24.30;80.70
37310;DHT22;23195;47.744;7.358;2023-06-04T12:49:38;24.30;80.20
37310;DHT22;23195;47.744;7.358;2023-06-04T12:52:04;24.60;79.90
37310;DHT22;23195;47.744;7.358;2023-06-04T12:54:33;24.60;79.50
37310;DHT22;23195;47.744;7.358;2023-06-04T12:56:59;24.70;79.80
37310;DHT22;23195;47.744;7.358;2023-06-04T12:59:27;24.60;77.40
37310;DHT22;23195;47.744;7.358;2023-06-04T13:01:54;24.50;78.70
37310;DHT22;23195;47.744;7.358;2023-06-04T13:04:20;24.80;78.10
37310;DHT22;23195;47.744;7.358;2023-06-04T13:06:46;24.80;77.20
37310;DHT22;23195;47.744;7.358;2023-06-04T13:09:12;24.80;77.50
37310;DHT22;23195;47.744;7.358;2023-06-04T13:11:42;24.90;76.60
37310;DHT22;23195;47.744;7.358;2023-06-04T13:14:09;24.90;76.90
37310;DHT22;23195;47.744;7.358;2023-06-04T13:16:38;25.00;77.20
37310;DHT22;23195;47.744;7.358;2023-06-04T13:19:04;24.90;75.00
37310;DHT22;23195;47.744;7.358;2023-06-04T13:21:34;24.90;76.50
37310;DHT22;23195;47.744;7.358;2023-06-04T13:24:00;24.90;76.60
37310;DHT22;23195;47.744;7.358;2023-06-04T13:26:26;25.20;77.20
37310;DHT22;23195;47.744;7.358;2023-06-04T13:28:52;25.30;74.80
37310;DHT22;23195;47.744;7.358;2023-06-04T13:31:18;25.00;74.70
37310;DHT22;23195;47.744;7.358;2023-06-04T13:33:44;25.00;75.70
37310;DHT22;23195;47.744;7.358;2023-06-04T13:36:09;24.90;75.00
37310;DHT22;23195;47.744;7.358;2023-06-04T13:38:38;25.00;75.00
37310;DHT22;23195;47.744;7.358;2023-06-04T13:41:03;25.10;75.00
37310;DHT22;23195;47.744;7.358;2023-06-04T13:43:29;25.20;73.80
37310;DHT22;23195;47.744;7.358;2023-06-04T13:45:55;25.00;74.50
37310;DHT22;23195;47.744;7.358;2023-06-04T13:48:23;25.20;74.40
37310;DHT22;23195;47.744;7.358;2023-06-04T13:50:49;25.10;74.90
37310;DHT22;23195;47.744;7.358;2023-06-04T13:53:15;25.30;73.50
37310;DHT22;23195;47.744;7.358;2023-06-04T13:55:40;25.10;73.50
37310;DHT22;23195;47.744;7.358;2023-06-04T13:58:12;25.10;73.60
37310;DHT22;23195;47.744;7.358;2023-06-04T14:00:38;25.20;73.30
37310;DHT22;23195;47.744;7.358;2023-06-04T14:03:03;25.10;73.60
37310;DHT22;23195;47.744;7.358;2023-06-04T14:05:30;25.10;73.80
37310;DHT22;23195;47.744;7.358;2023-06-04T14:07:55;25.20;74.10
37310;DHT22;23195;47.744;7.358;2023-06-04T14:10:21;25.00;74.60
37310;DHT22;23195;47.744;7.358;2023-06-04T14:12:50;25.50;75.20
37310;DHT22;23195;47.744;7.358;2023-06-04T14:15:16;25.40;74.10
37310;DHT22;23195;47.744;7.358;2023-06-04T14:17:42;25.30;74.40
37310;DHT22;23195;47.744;7.358;2023-06-04T14:20:08;25.50;74.90
37310;DHT22;23195;47.744;7.358;2023-06-04T14:22:35;25.60;75.10
37310;DHT22;23195;47.744;7.358;2023-06-04T14:25:05;25.70;74.00
37310;DHT22;23195;47.744;7.358;2023-06-04T14:27:31;25.80;73.80
37310;DHT22;23195;47.744;7.358;2023-06-04T14:29:57;25.80;73.70
37310;DHT22;23195;47.744;7.358;2023-06-04T14:32:23;25.80;73.80
37310;DHT22;23195;47.744;7.358;2023-06-04T14:34:49;26.00;73.80
37310;DHT22;23195;47.744;7.358;2023-06-04T14:37:15;26.00;73.40
37310;DHT22;23195;47.744;7.358;2023-06-04T14:39:44;25.90;72.80
37310;DHT22;23195;47.744;7.358;2023-06-04T14:42:09;25.80;73.40
37310;DHT22;23195;47.744;7.358;2023-06-04T14:44:35;25.80;72.80
37310;DHT22;23195;47.744;7.358;2023-06-04T14:47:01;25.70;72.10
37310;DHT22;23195;47.744;7.358;2023-06-04T14:49:30;25.90;71.90
37310;DHT22;23195;47.744;7.358;2023-06-04T14:51:56;25.90;72.40
37310;DHT22;23195;47.744;7.358;2023-06-04T14:54:24;25.90;72.80
37310;DHT22;23195;47.744;7.358;2023-06-04T14:56:50;26.00;73.40
37310;DHT22;23195;47.744;7.358;2023-06-04T14:59:21;26.00;72.70
37310;DHT22;23195;47.744;7.358;2023-06-04T15:01:55;26.00;73.10
37310;DHT22;23195;47.744;7.358;2023-06-04T15:04:21;25.90;73.20
37310;DHT22;23195;47.744;7.358;2023-06-04T15:06:48;26.00;73.10
37310;DHT22;23195;47.744;7.358;2023-06-04T15:09:14;26.00;73.10
37310;DHT22;23195;47.744;7.358;2023-06-04T15:11:40;26.00;73.70
37310;DHT22;23195;47.744;7.358;2023-06-04T15:14:05;26.10;73.40
37310;DHT22;23195;47.744;7.358;2023-06-04T15:16:31;26.10;74.50
37310;DHT22;23195;47.744;7.358;2023-06-04T15:18:57;26.10;73.50
37310;DHT22;23195;47.744;7.358;2023-06-04T15:21:28;26.00;75.00
37310;DHT22;23195;47.744;7.358;2023-06-04T15:23:54;26.10;73.60
37310;DHT22;23195;47.744;7.358;2023-06-04T15:26:20;26.00;73.60
37310;DHT22;23195;47.744;7.358;2023-06-04T15:28:46;25.90;73.50
37310;DHT22;23195;47.744;7.358;2023-06-04T15:31:12;26.10;73.90
37310;DHT22;23195;47.744;7.358;2023-06-04T15:33:38;26.20;72.70
37310;DHT22;23195;47.744;7.358;2023-06-04T15:36:04;26.30;72.60
37310;DHT22;23195;47.744;7.358;2023-06-04T15:38:29;26.30;72.90
37310;DHT22;23195;47.744;7.358;2023-06-04T15:40:55;26.40;73.00
37310;DHT22;23195;47.744;7.358;2023-06-04T15:43:26;26.30;72.40
37310;DHT22;23195;47.744;7.358;2023-06-04T15:45:57;26.30;71.70
37310;DHT22;23195;47.744;7.358;2023-06-04T15:48:23;26.40;72.20
37310;DHT22;23195;47.744;7.358;2023-06-04T15:51:09;26.40;72.40
37310;DHT22;23195;47.744;7.358;2023-06-04T15:53:39;26.50;72.00
37310;DHT22;23195;47.744;7.358;2023-06-04T15:56:05;26.40;71.60
37310;DHT22;23195;47.744;7.358;2023-06-04T15:58:44;26.30;71.40
37310;DHT22;23195;47.744;7.358;2023-06-04T16:01:10;26.00;72.50
37310;DHT22;23195;47.744;7.358;2023-06-04T16:03:43;26.00;72.30
37310;DHT22;23195;47.744;7.358;2023-06-04T16:06:13;25.80;72.30
37310;DHT22;23195;47.744;7.358;2023-06-04T16:08:48;25.80;72.30
37310;DHT22;23195;47.744;7.358;2023-06-04T16:11:14;26.10;72.00
37310;DHT22;23195;47.744;7.358;2023-06-04T16:13:43;26.20;71.40
37310;DHT22;23195;47.744;7.358;2023-06-04T16:16:19;26.20;70.40
37310;DHT22;23195;47.744;7.358;2023-06-04T16:18:47;26.50;71.00
37310;DHT22;23195;47.744;7.358;2023-06-04T16:21:14;26.70;69.70